Time;durP1;ratioP1;P1;durP2;ratioP2;P2;SDS_P1;SDS_P2;PMS_P1;PMS_P2;Temp;Humidity;BMP_temperature;BMP_pressure;BME280_temperature;BME280_humidity;BME280_pressure;Samples;Min_cycle;Max_cycle;Signal;HPM_P1;HPM_P2
2020/12/27 00:02:20;;;;;;;;;;;;;;;9.47;64.98;100117.28;4852232;29;20207;-85
2020/12/27 00:04:45;;;;;;;;;;;;;;;8.76;66.80;100112.09;4853453;29;20403;-84
2020/12/27 00:07:11;;;;;;;;;;;;;;;9.12;65.38;100095.78;4870185;29;19916;-85
2020/12/27 00:09:41;;;;;;;;;;;;;;;8.91;66.13;100078.91;4856220;29;19927;-84
2020/12/27 00:12:06;;;;;;;;;;;;;;;9.36;65.10;100069.28;4845667;29;19924;-85
2020/12/27 00:14:32;;;;;;;;;;;;;;;8.98;66.65;100055.16;4839887;29;19973;-85
2020/12/27 00:17:11;;;;;;;;;;;;;;;8.85;66.73;100045.03;4852175;29;19917;-86
2020/12/27 00:19:37;;;;;;;;;;;;;;;9.32;65.11;100032.59;4822762;29;20264;-85
2020/12/27 00:22:04;;;;;;;;;;;;;;;8.79;65.78;100045.38;4837822;29;19950;-86
2020/12/27 00:24:29;;;;;;;;;;;;;;;8.94;66.00;100007.75;4852820;29;20006;-85
2020/12/27 00:26:55;;;;;;;;;;;;;;;9.26;65.53;100048.28;4835912;29;19977;-86
2020/12/27 00:29:21;;;;;;;;;;;;;;;9.45;65.07;100010.31;4835599;29;20393;-85
2020/12/27 00:31:50;;;;;;;;;;;;;;;9.15;65.41;100003.88;4852128;29;19948;-86
2020/12/27 00:34:16;;;;;;;;;;;;;;;9.04;65.40;100003.56;4852020;29;20413;-85
2020/12/27 00:36:41;;;;;;;;;;;;;;;8.93;65.97;100000.59;4850026;29;19928;-85
2020/12/27 00:39:07;;;;;;;;;;;;;;;8.96;65.90;100009.38;4834827;29;19916;-84
2020/12/27 00:41:33;;;;;;;;;;;;;;;9.01;65.18;99987.56;4852197;29;19912;-84
2020/12/27 00:43:59;;;;;;;;;;;;;;;8.79;66.36;99967.16;4852795;29;20355;-85
2020/12/27 00:46:24;;;;;;;;;;;;;;;8.84;65.89;99942.63;4834299;29;19913;-85
2020/12/27 00:48:49;;;;;;;;;;;;;;;8.44;66.93;99960.94;4852515;29;19920;-86
2020/12/27 00:51:22;;;;;;;;;;;;;;;9.04;65.30;99925.31;4820329;29;20027;-86
2020/12/27 00:53:47;;;;;;;;;;;;;;;8.77;66.05;99935.81;4834595;29;19924;-85
2020/12/27 00:56:12;;;;;;;;;;;;;;;8.52;67.37;99938.03;4834907;29;19972;-85
2020/12/27 00:58:39;;;;;;;;;;;;;;;8.95;65.12;99912.34;4834803;29;19974;-84
2020/12/27 01:01:04;;;;;;;;;;;;;;;8.72;65.70;99892.06;4834366;29;19932;-85
2020/12/27 01:03:29;;;;;;;;;;;;;;;8.80;65.65;99895.19;4851316;29;19921;-85
2020/12/27 01:05:54;;;;;;;;;;;;;;;8.74;66.22;99888.34;4850705;29;20387;-85
2020/12/27 01:08:19;;;;;;;;;;;;;;;8.90;65.84;99879.38;4851110;29;19916;-85
2020/12/27 01:10:45;;;;;;;;;;;;;;;8.69;65.36;99874.22;4850901;29;19917;-85
2020/12/27 01:13:10;;;;;;;;;;;;;;;9.28;64.09;99866.38;4834843;29;19916;-85
2020/12/27 01:15:38;;;;;;;;;;;;;;;9.05;64.78;99852.41;4834519;29;19916;-85
2020/12/27 01:18:04;;;;;;;;;;;;;;;9.09;64.74;99849.53;4834184;29;19933;-85
2020/12/27 01:20:29;;;;;;;;;;;;;;;9.08;64.26;99815.44;4834024;29;20327;-85
2020/12/27 01:22:54;;;;;;;;;;;;;;;8.74;65.31;99753.53;4850960;29;20419;-85
2020/12/27 01:25:19;;;;;;;;;;;;;;;8.42;67.05;99748.06;4850846;29;19912;-84
2020/12/27 01:27:45;;;;;;;;;;;;;;;8.50;67.51;99750.41;4834555;29;19916;-84
2020/12/27 01:30:10;;;;;;;;;;;;;;;9.09;65.51;99749.69;4850505;29;19916;-84
2020/12/27 01:32:35;;;;;;;;;;;;;;;8.70;65.52;99751.94;4833869;29;20015;-84
2020/12/27 01:35:00;;;;;;;;;;;;;;;8.97;65.17;99778.28;4834212;29;19920;-85
2020/12/27 01:37:26;;;;;;;;;;;;;;;8.48;66.98;99742.41;4833988;29;19920;-84
2020/12/27 01:39:51;;;;;;;;;;;;;;;8.58;66.65;99723.00;4850400;29;20015;-85
2020/12/27 01:42:16;;;;;;;;;;;;;;;8.77;65.57;99704.81;4834081;29;19923;-85
2020/12/27 01:44:42;;;;;;;;;;;;;;;8.96;65.40;99709.09;4850579;29;19924;-85
2020/12/27 01:47:19;;;;;;;;;;;;;;;8.98;65.00;99704.47;4833906;29;19924;-85
2020/12/27 01:49:44;;;;;;;;;;;;;;;8.87;64.94;99711.38;4848986;29;20003;-85
2020/12/27 01:52:09;;;;;;;;;;;;;;;8.81;65.08;99684.75;4833855;29;19964;-85
2020/12/27 01:54:35;;;;;;;;;;;;;;;8.92;64.46;99658.97;4834186;29;19923;-85
2020/12/27 01:57:02;;;;;;;;;;;;;;;8.62;65.62;99670.63;4833593;29;19924;-85
2020/12/27 01:59:29;;;;;;;;;;;;;;;8.71;64.65;99691.69;4850532;29;19964;-84
2020/12/27 02:01:55;;;;;;;;;;;;;;;8.74;65.07;99642.97;4851438;29;19920;-85
2020/12/27 02:04:20;;;;;;;;;;;;;;;8.66;64.90;99647.91;4850684;29;19920;-85
2020/12/27 02:06:46;;;;;;;;;;;;;;;8.55;65.03;99631.53;4834221;29;19912;-84
2020/12/27 02:09:12;;;;;;;;;;;;;;;8.62;64.83;99632.88;4834256;29;19917;-85
2020/12/27 02:11:38;;;;;;;;;;;;;;;8.66;65.20;99631.75;4834327;29;19916;-85
2020/12/27 02:14:03;;;;;;;;;;;;;;;8.36;65.23;99610.13;4850320;29;20011;-85
2020/12/27 02:16:29;;;;;;;;;;;;;;;8.61;65.37;99590.72;4850335;29;19916;-84
2020/12/27 02:18:55;;;;;;;;;;;;;;;8.62;65.33;99589.75;4850217;29;19916;-85
2020/12/27 02:21:21;;;;;;;;;;;;;;;8.37;65.83;99564.22;4834194;29;19945;-85
2020/12/27 02:23:46;;;;;;;;;;;;;;;8.03;67.00;99550.06;4833991;29;19920;-84
2020/12/27 02:26:12;;;;;;;;;;;;;;;8.92;65.27;99537.63;4834075;29;19965;-85
2020/12/27 02:28:37;;;;;;;;;;;;;;;8.16;67.30;99534.88;4850336;29;19916;-85
2020/12/27 02:31:03;;;;;;;;;;;;;;;8.64;65.55;99545.56;4849965;29;19949;-85
2020/12/27 02:33:28;;;;;;;;;;;;;;;8.10;67.06;99521.78;4849955;29;19924;-85
2020/12/27 02:35:53;;;;;;;;;;;;;;;8.53;65.84;99513.00;4833956;29;20311;-86
2020/12/27 02:38:19;;;;;;;;;;;;;;;8.18;66.78;99493.53;4834800;29;19916;-85
2020/12/27 02:40:44;;;;;;;;;;;;;;;8.17;67.88;99498.06;4850211;29;20338;-83
2020/12/27 02:43:16;;;;;;;;;;;;;;;8.36;66.22;99499.66;4833545;29;19920;-84
2020/12/27 02:45:41;;;;;;;;;;;;;;;8.19;67.42;99497.97;4833586;29;19956;-84
2020/12/27 02:48:06;;;;;;;;;;;;;;;8.21;66.83;99491.50;4833628;29;20398;-84
2020/12/27 02:50:32;;;;;;;;;;;;;;;8.12;67.43;99470.50;4849700;29;19955;-85
2020/12/27 02:52:57;;;;;;;;;;;;;;;8.53;67.19;99459.09;4833121;29;20402;-85
2020/12/27 02:55:22;;;;;;;;;;;;;;;8.22;68.87;99450.16;4832577;29;19917;-85
2020/12/27 02:57:47;;;;;;;;;;;;;;;8.67;67.18;99432.13;4833172;29;19924;-85
2020/12/27 03:00:14;;;;;;;;;;;;;;;8.54;68.17;99419.53;4833683;29;19916;-85
2020/12/27 03:02:39;;;;;;;;;;;;;;;8.38;67.93;99411.47;4849845;29;19917;-85
2020/12/27 03:05:04;;;;;;;;;;;;;;;8.21;68.93;99390.97;4850342;29;20003;-86
2020/12/27 03:07:29;;;;;;;;;;;;;;;8.57;68.89;99387.84;4833608;29;19952;-85
2020/12/27 03:09:55;;;;;;;;;;;;;;;7.89;70.62;99385.72;4834770;29;19955;-86
2020/12/27 03:12:20;;;;;;;;;;;;;;;7.84;70.50;99377.91;4853575;29;19924;-85
2020/12/27 03:14:45;;;;;;;;;;;;;;;8.04;69.67;99390.16;4852652;29;19913;-86
2020/12/27 03:17:10;;;;;;;;;;;;;;;8.25;68.30;99371.81;4853363;29;20003;-85
2020/12/27 03:19:36;;;;;;;;;;;;;;;8.25;69.71;99366.44;4837212;29;19927;-85
2020/12/27 03:22:01;;;;;;;;;;;;;;;8.01;70.08;99336.50;4836948;29;19912;-85
2020/12/27 03:24:26;;;;;;;;;;;;;;;7.93;72.19;99328.03;4837235;29;19920;-86
2020/12/27 03:26:51;;;;;;;;;;;;;;;8.13;69.93;99359.13;4837135;29;19974;-87
2020/12/27 03:29:17;;;;;;;;;;;;;;;7.98;70.87;99317.84;4836261;29;19912;-86
2020/12/27 03:31:42;;;;;;;;;;;;;;;7.72;71.39;99306.84;4853631;29;19924;-87
2020/12/27 03:34:07;;;;;;;;;;;;;;;7.58;72.78;99312.19;4836920;29;20011;-87
2020/12/27 03:36:32;;;;;;;;;;;;;;;7.87;70.91;99317.63;4837130;29;19959;-87
2020/12/27 03:38:58;;;;;;;;;;;;;;;8.39;72.46;99291.97;4853651;29;19920;-86
2020/12/27 03:41:23;;;;;;;;;;;;;;;8.29;70.68;99307.84;4837006;29;19920;-87
2020/12/27 03:43:48;;;;;;;;;;;;;;;8.38;69.29;99293.81;4836970;29;19927;-86
2020/12/27 03:46:13;;;;;;;;;;;;;;;8.56;69.40;99277.44;4853448;29;19924;-87
2020/12/27 03:48:39;;;;;;;;;;;;;;;8.45;69.77;99267.34;4837128;29;19912;-86
2020/12/27 03:51:04;;;;;;;;;;;;;;;-147.53;100.00;59759.91;4854727;29;19917;-87
2020/12/27 03:53:29;;;;;;;;;;;;;;;8.69;68.82;99229.84;4838718;29;19920;-86
2020/12/27 03:55:55;;;;;;;;;;;;;;;8.51;68.62;99246.28;4839251;29;19916;-87
2020/12/27 03:58:20;;;;;;;;;;;;;;;7.76;72.76;99206.09;4855014;29;19916;-88
2020/12/27 04:00:45;;;;;;;;;;;;;;;8.03;70.58;99190.97;4838155;29;19962;-88
2020/12/27 04:03:11;;;;;;;;;;;;;;;8.20;69.73;99193.47;4837950;29;19991;-88
2020/12/27 04:05:36;;;;;;;;;;;;;;;8.29;69.29;99182.09;4838135;29;19932;-89
2020/12/27 04:08:06;;;;;;;;;;;;;;;8.56;69.61;99153.44;4838167;29;19916;-88
2020/12/27 04:10:32;;;;;;;;;;;;;;;8.21;69.75;99175.47;4853019;29;20430;-88
2020/12/27 04:12:57;;;;;;;;;;;;;;;8.20;70.06;99152.16;4853270;29;19920;-87
2020/12/27 04:15:22;;;;;;;;;;;;;;;8.55;67.74;99136.41;4852979;29;19917;-88
2020/12/27 04:17:47;;;;;;;;;;;;;;;8.20;69.32;99098.28;4837482;29;19916;-88
2020/12/27 04:20:13;;;;;;;;;;;;;;;8.74;68.72;99102.81;4837618;29;19916;-89
2020/12/27 04:22:38;;;;;;;;;;;;;;;8.50;68.92;99082.81;4852850;29;19924;-87
2020/12/27 04:25:03;;;;;;;;;;;;;;;8.44;68.70;99088.63;4837220;29;20311;-88
2020/12/27 04:27:29;;;;;;;;;;;;;;;8.41;69.63;99059.16;4837617;29;19916;-89
2020/12/27 04:29:54;;;;;;;;;;;;;;;8.60;68.25;99066.88;4837402;29;19923;-87
2020/12/27 04:32:19;;;;;;;;;;;;;;;8.62;68.63;99035.31;4852315;29;19972;-88
2020/12/27 04:34:44;;;;;;;;;;;;;;;8.65;69.01;99043.19;4837199;29;20413;-88
2020/12/27 04:37:10;;;;;;;;;;;;;;;8.14;70.63;99008.00;4837373;29;19923;-88
2020/12/27 04:39:35;;;;;;;;;;;;;;;8.68;67.92;99015.13;4837207;29;19917;-88
2020/12/27 04:42:01;;;;;;;;;;;;;;;8.30;69.68;98973.69;4853959;29;19952;-88
2020/12/27 04:44:26;;;;;;;;;;;;;;;8.32;69.50;98973.56;4837210;29;20276;-88
2020/12/27 04:46:53;;;;;;;;;;;;;;;8.23;69.73;98960.72;4837360;29;19916;-89
2020/12/27 04:49:18;;;;;;;;;;;;;;;8.62;68.18;98926.59;4837322;29;19916;-89
2020/12/27 04:51:45;;;;;;;;;;;;;;;8.85;68.24;98933.94;4837035;29;19917;-89
2020/12/27 04:54:12;;;;;;;;;;;;;;;8.50;68.23;98940.00;4852593;29;19917;-88
2020/12/27 04:56:41;;;;;;;;;;;;;;;8.86;66.93;98911.41;4836894;29;19924;-88
2020/12/27 04:59:07;;;;;;;;;;;;;;;8.98;66.98;98919.56;4836888;29;19917;-88
2020/12/27 05:01:32;;;;;;;;;;;;;;;8.63;67.68;98925.66;4837001;29;20359;-88
2020/12/27 05:03:57;;;;;;;;;;;;;;;8.87;67.75;98901.47;4837079;29;19976;-89
2020/12/27 05:06:23;;;;;;;;;;;;;;;8.85;67.79;98868.38;4853107;29;19925;-88
2020/12/27 05:08:48;;;;;;;;;;;;;;;8.96;67.05;98891.88;4836480;29;19932;-88
2020/12/27 05:11:14;;;;;;;;;;;;;;;8.64;68.03;98855.47;4836389;29;19972;-88
2020/12/27 05:13:42;;;;;;;;;;;;;;;8.87;67.92;98861.88;4836700;29;19965;-88
2020/12/27 05:16:08;;;;;;;;;;;;;;;8.94;66.79;98832.66;4836751;29;19913;-88
2020/12/27 05:18:33;;;;;;;;;;;;;;;9.06;66.11;98830.88;4836811;29;19974;-89
2020/12/27 05:20:59;;;;;;;;;;;;;;;8.72;67.93;98832.47;4836402;29;19975;-88
2020/12/27 05:23:26;;;;;;;;;;;;;;;8.56;68.04;98819.25;4852076;29;19916;-88
2020/12/27 05:25:51;;;;;;;;;;;;;;;8.88;67.24;98795.34;4851345;29;19997;-89
2020/12/27 05:28:17;;;;;;;;;;;;;;;9.13;65.59;98828.59;4836535;29;19924;-88
2020/12/27 05:30:54;;;;;;;;;;;;;;;8.67;67.79;98803.16;4836810;29;19924;-88
2020/12/27 05:33:26;;;;;;;;;;;;;;;8.60;67.31;98772.25;4836063;29;19916;-87
2020/12/27 05:35:59;;;;;;;;;;;;;;;9.01;67.00;98773.72;4836217;29;19967;-88
2020/12/27 05:38:25;;;;;;;;;;;;;;;8.91;67.11;98773.53;4836547;29;19916;-87
2020/12/27 05:40:50;;;;;;;;;;;;;;;9.05;66.86;98761.72;4851794;29;20390;-89
2020/12/27 05:43:16;;;;;;;;;;;;;;;8.67;67.65;98738.47;4835846;29;19969;-89
2020/12/27 05:45:51;;;;;;;;;;;;;;;9.04;67.16;98723.13;4836275;29;20331;-88
2020/12/27 05:48:17;;;;;;;;;;;;;;;8.62;67.72;98728.03;4852004;29;19993;-88
2020/12/27 05:50:46;;;;;;;;;;;;;;;8.55;68.42;98707.88;4837425;29;19913;-89
2020/12/27 05:53:15;;;;;;;;;;;;;;;8.85;67.53;98710.13;4836974;29;19920;-88
2020/12/27 05:55:43;;;;;;;;;;;;;;;8.63;71.85;98693.84;4835677;29;19940;-87
2020/12/27 05:58:09;;;;;;;;;;;;;;;9.10;66.47;98689.41;4849534;29;19927;-88
2020/12/27 06:00:35;;;;;;;;;;;;;;;8.65;68.92;98668.50;4833778;29;19917;-88
2020/12/27 06:03:01;;;;;;;;;;;;;;;9.02;67.06;98668.41;4848810;29;19940;-88
2020/12/27 06:05:45;;;;;;;;;;;;;;;8.51;68.49;98674.94;4834041;29;20371;-88
2020/12/27 06:08:42;;;;;;;;;;;;;;;9.18;67.58;98646.53;4833710;29;19942;-88
2020/12/27 06:11:07;;;;;;;;;;;;;;;8.75;68.93;98659.72;4833137;29;19924;-88
2020/12/27 06:13:45;;;;;;;;;;;;;;;8.91;68.34;98656.72;4834011;29;20008;-89
2020/12/27 06:16:27;;;;;;;;;;;;;;;;;;;;;
2020/12/27 06:19:03;;;;;;;;;;;;;;;9.21;67.85;98608.50;4850019;29;20019;-88
2020/12/27 06:21:42;;;;;;;;;;;;;;;9.00;69.05;98602.09;4849223;29;19917;-88
2020/12/27 06:24:21;;;;;;;;;;;;;;;9.19;67.63;98591.59;4834114;29;19920;-88
2020/12/27 06:26:46;;;;;;;;;;;;;;;8.87;69.17;98581.44;4833877;29;20384;-89
2020/12/27 06:29:14;;;;;;;;;;;;;;;8.70;67.98;98600.78;4833975;29;19917;-89
2020/12/27 06:31:40;;;;;;;;;;;;;;;8.81;68.17;98570.28;4833556;29;19924;-89
2020/12/27 06:34:08;;;;;;;;;;;;;;;8.86;67.93;98577.06;4833357;29;19917;-88
2020/12/27 06:36:36;;;;;;;;;;;;;;;8.89;68.50;98559.75;4833611;29;20042;-89
2020/12/27 06:39:19;;;;;;;;;;;;;;;9.09;67.96;98525.88;4833697;29;19924;-89
2020/12/27 06:42:16;;;;;;;;;;;;;;;;;;;;;
2020/12/27 06:45:07;;;;;;;;;;;;;;;8.46;70.05;98503.78;4848636;29;19979;-89
2020/12/27 06:47:52;;;;;;;;;;;;;;;8.72;68.66;98490.13;4833897;29;19984;-90
2020/12/27 06:50:21;;;;;;;;;;;;;;;8.64;68.51;98479.94;4849668;29;19920;-90
2020/12/27 06:52:56;;;;;;;;;;;;;;;9.09;71.18;98454.84;4848891;29;19986;-92
2020/12/27 06:56:06;;;;;;;;;;;;;;;8.86;68.12;98496.16;4848562;29;19917;-88
2020/12/27 06:58:43;;;;;;;;;;;;;;;8.89;69.21;98445.66;4793956;30;19925;-88
2020/12/27 07:01:39;;;;;;;;;;;;;;;8.72;69.97;98433.53;4779056;30;19928;-88
2020/12/27 07:04:46;;;;;;;;;;;;;;;8.82;69.04;98435.38;4792842;29;19927;-90
2020/12/27 07:07:41;;;;;;;;;;;;;;;8.88;68.18;98436.72;4775192;30;19964;-89
2020/12/27 07:10:20;;;;;;;;;;;;;;;9.24;67.69;98399.69;4825360;23;20023;-89
2020/12/27 07:13:11;;;;;;;;;;;;;;;9.11;68.05;98399.81;4851793;29;19923;-89
2020/12/27 07:15:59;;;;;;;;;;;;;;;9.03;68.32;98395.03;4835512;29;19916;-91
2020/12/27 07:18:26;;;;;;;;;;;;;;;8.68;75.53;98406.81;4846551;29;20286;-90
2020/12/27 07:21:08;;;;;;;;;;;;;;;;;;;;;
2020/12/27 07:23:37;;;;;;;;;;;;;;;8.91;68.97;98360.97;4868460;29;20018;-90
2020/12/27 07:26:09;;;;;;;;;;;;;;;8.91;70.69;98363.69;4851893;29;19916;-90
2020/12/27 07:28:37;;;;;;;;;;;;;;;8.58;69.92;98362.69;4852099;29;20410;-89
2020/12/27 07:31:15;;;;;;;;;;;;;;;8.44;70.34;98415.00;4852296;29;19916;-89
2020/12/27 07:33:47;;;;;;;;;;;;;;;9.42;67.06;98359.56;4852103;29;19947;-90
2020/12/27 07:36:13;;;;;;;;;;;;;;;8.76;68.64;98373.00;4852486;29;19916;-89
2020/12/27 07:39:04;;;;;;;;;;;;;;;9.13;67.36;98365.47;4852931;29;19922;-90
2020/12/27 07:41:49;;;;;;;;;;;;;;;8.92;68.48;98330.31;4852845;29;20365;-91
2020/12/27 07:44:17;;;;;;;;;;;;;;;9.36;67.68;98308.75;4869946;29;20016;-91
2020/12/27 07:46:48;;;;;;;;;;;;;;;8.93;68.96;98323.13;4854247;29;19916;-91
2020/12/27 07:49:32;;;;;;;;;;;;;;;9.19;68.31;98313.75;4877542;29;19923;-88
2020/12/27 07:52:05;;;;;;;;;;;;;;;9.20;67.56;98299.25;4854126;29;19967;-91
2020/12/27 07:54:41;;;;;;;;;;;;;;;9.15;68.05;98284.44;4852966;29;19923;-90
2020/12/27 07:57:10;;;;;;;;;;;;;;;9.15;68.47;98296.09;4855440;29;20030;-90
2020/12/27 07:59:38;;;;;;;;;;;;;;;8.84;67.84;98293.22;4871864;29;19922;-89
2020/12/27 08:02:17;;;;;;;;;;;;;;;8.71;69.21;98267.38;4856736;29;19923;-90
2020/12/27 08:04:42;;;;;;;;;;;;;;;9.22;68.54;98264.06;4856872;29;20438;-91
2020/12/27 08:07:25;;;;;;;;;;;;;;;9.10;67.94;98259.69;4856902;29;19980;-90
2020/12/27 08:09:53;;;;;;;;;;;;;;;9.08;67.82;98240.94;4901226;23;19925;-88
2020/12/27 08:12:24;;;;;;;;;;;;;;;9.11;68.45;98223.66;4837771;29;19917;-89
2020/12/27 08:15:24;;;;;;;;;;;;;;;9.18;68.79;98208.69;4853631;29;20406;-88
2020/12/27 08:18:13;;;;;;;;;;;;;;;8.82;69.11;98225.09;4800943;29;19924;-89
2020/12/27 08:20:48;;;;;;;;;;;;;;;8.76;68.35;98231.00;4800723;29;19924;-90
2020/12/27 08:23:16;;;;;;;;;;;;;;;8.97;68.85;98204.09;4800748;29;19917;-89
2020/12/27 08:25:41;;;;;;;;;;;;;;;9.17;67.32;98186.22;4800536;29;19923;-89
2020/12/27 08:28:08;;;;;;;;;;;;;;;8.99;69.32;98206.66;4826947;29;20505;-88
2020/12/27 08:30:37;;;;;;;;;;;;;;;9.09;67.65;98239.97;4838180;29;20017;-92
2020/12/27 08:33:03;;;;;;;;;;;;;;;9.44;67.35;98160.56;4838242;29;19917;-91
2020/12/27 08:35:31;;;;;;;;;;;;;;;9.48;66.95;98189.00;4838608;29;19916;-90
2020/12/27 08:38:25;;;;;;;;;;;;;;;9.76;65.52;98194.72;4838183;29;19965;-91
2020/12/27 08:41:00;;;;;;;;;;;;;;;9.18;66.60;98187.94;4855991;29;19936;-88
2020/12/27 08:43:33;;;;;;;;;;;;;;;9.44;66.63;98138.16;4848119;29;19916;-90
2020/12/27 08:46:03;;;;;;;;;;;;;;;9.61;65.82;98126.72;4847047;29;19903;-88
2020/12/27 08:48:31;;;;;;;;;;;;;;;9.60;65.97;98122.28;4847896;29;19916;-91
2020/12/27 08:51:06;;;;;;;;;;;;;;;9.37;66.18;98141.34;4848381;29;19920;-92
2020/12/27 08:53:32;;;;;;;;;;;;;;;9.35;66.29;98126.28;4848197;29;19928;-88
2020/12/27 08:56:00;;;;;;;;;;;;;;;9.34;66.67;98103.84;4848777;29;19900;-93
2020/12/27 08:58:25;;;;;;;;;;;;;;;9.65;65.61;98114.66;4847412;29;19927;-88
2020/12/27 09:00:50;;;;;;;;;;;;;;;9.28;66.43;98104.38;4861286;29;19914;-89
2020/12/27 09:03:16;;;;;;;;;;;;;;;9.64;65.93;98085.13;4842247;29;19916;-87
2020/12/27 09:05:42;;;;;;;;;;;;;;;9.61;65.71;98063.78;4851795;29;19942;-87
2020/12/27 09:08:16;;;;;;;;;;;;;;;9.31;66.73;98096.00;4835281;29;19920;-88
2020/12/27 09:10:42;;;;;;;;;;;;;;;9.50;66.24;98071.00;4836664;29;20022;-88
2020/12/27 09:13:09;;;;;;;;;;;;;;;9.53;65.82;98072.56;4851388;29;19916;-88
2020/12/27 09:15:34;;;;;;;;;;;;;;;9.84;65.44;98059.88;4837201;29;20016;-87
2020/12/27 09:18:06;;;;;;;;;;;;;;;9.68;65.16;98070.38;4840782;29;19916;-86
2020/12/27 09:20:34;;;;;;;;;;;;;;;9.57;65.40;98057.78;4840904;29;19920;-87
2020/12/27 09:22:59;;;;;;;;;;;;;;;10.00;64.51;98043.16;4841807;29;19940;-86
2020/12/27 09:25:29;;;;;;;;;;;;;;;9.78;65.16;98011.84;4835014;29;20340;-84
2020/12/27 09:27:55;;;;;;;;;;;;;;;9.92;64.52;98018.72;4835078;29;19923;-87
2020/12/27 09:30:22;;;;;;;;;;;;;;;9.99;64.31;98014.44;4850786;29;19921;-88
2020/12/27 09:32:48;;;;;;;;;;;;;;;9.80;65.11;98003.59;4836898;29;19931;-87
2020/12/27 09:35:21;;;;;;;;;;;;;;;10.04;64.59;98009.50;4854444;29;19952;-86
2020/12/27 09:37:47;;;;;;;;;;;;;;;9.90;64.25;97983.75;4836088;29;20011;-88
2020/12/27 09:40:14;;;;;;;;;;;;;;;9.95;64.51;97988.72;4835238;29;19944;-88
2020/12/27 09:42:40;;;;;;;;;;;;;;;10.14;63.87;97979.78;4839609;29;19937;-88
2020/12/27 09:45:16;;;;;;;;;;;;;;;9.86;65.20;97974.22;4840513;29;19980;-86
2020/12/27 09:47:48;;;;;;;;;;;;;;;10.04;64.06;97954.59;4826765;29;19927;-87
2020/12/27 09:50:30;;;;;;;;;;;;;;;9.74;64.94;97946.47;4819345;29;19920;-91
2020/12/27 09:52:55;;;;;;;;;;;;;;;9.87;63.98;97956.16;4828139;29;19967;-89
2020/12/27 09:55:21;;;;;;;;;;;;;;;10.23;63.13;97946.50;4815540;29;19912;-88
2020/12/27 09:57:46;;;;;;;;;;;;;;;9.90;63.75;97929.75;4831630;29;19923;-89
2020/12/27 10:00:12;;;;;;;;;;;;;;;10.03;63.44;97955.63;4826497;29;19916;-88
2020/12/27 10:02:37;;;;;;;;;;;;;;;9.83;63.91;97922.31;4822087;29;20349;-88
2020/12/27 10:05:02;;;;;;;;;;;;;;;9.91;63.37;97906.28;4828378;29;19940;-88
2020/12/27 10:07:28;;;;;;;;;;;;;;;10.22;62.97;97909.69;4827062;29;19955;-85
2020/12/27 10:09:56;;;;;;;;;;;;;;;10.04;63.67;97887.94;4841696;29;20397;-88
2020/12/27 10:12:21;;;;;;;;;;;;;;;10.02;63.20;97902.59;4826572;29;19967;-88
2020/12/27 10:14:51;;;;;;;;;;;;;;;10.02;63.83;97937.69;4824885;29;20363;-86
2020/12/27 10:17:17;;;;;;;;;;;;;;;9.69;64.37;97910.09;4822727;29;19916;-85
2020/12/27 10:19:45;;;;;;;;;;;;;;;10.01;68.15;97882.84;4831864;29;19943;-86
2020/12/27 10:22:10;;;;;;;;;;;;;;;9.67;65.63;97860.81;4823903;29;19917;-86
2020/12/27 10:24:36;;;;;;;;;;;;;;;10.03;64.63;97834.06;4834520;29;19933;-87
2020/12/27 10:27:05;;;;;;;;;;;;;;;9.71;64.63;97843.34;4819380;29;19921;-88
2020/12/27 10:29:30;;;;;;;;;;;;;;;9.97;64.52;97837.34;4825673;29;20406;-86
2020/12/27 10:31:57;;;;;;;;;;;;;;;9.68;65.06;97886.81;4833076;29;19949;-86
2020/12/27 10:34:22;;;;;;;;;;;;;;;10.35;63.20;97836.47;4824058;29;19979;-86
2020/12/27 10:36:49;;;;;;;;;;;;;;;9.83;63.81;97831.38;4816167;29;19971;-86
2020/12/27 10:39:15;;;;;;;;;;;;;;;10.17;63.53;97824.66;4843118;29;19920;-86
2020/12/27 10:41:40;;;;;;;;;;;;;;;10.41;62.94;97814.25;4822894;29;19921;-86
2020/12/27 10:44:06;;;;;;;;;;;;;;;10.27;62.40;97820.09;4823580;29;19921;-89
2020/12/27 10:46:31;;;;;;;;;;;;;;;10.14;63.53;97801.50;4820607;29;19980;-86
2020/12/27 10:48:56;;;;;;;;;;;;;;;10.46;62.97;97782.25;4836651;29;19913;-85
2020/12/27 10:51:21;;;;;;;;;;;;;;;10.66;62.19;97770.47;4837952;29;19920;-85
2020/12/27 10:53:47;;;;;;;;;;;;;;;10.08;63.06;97769.66;4820345;29;19913;-87
2020/12/27 10:56:13;;;;;;;;;;;;;;;9.91;65.66;97826.13;4834300;29;19916;-88
2020/12/27 10:58:38;;;;;;;;;;;;;;;10.16;64.81;97831.94;4826194;29;19967;-88
2020/12/27 11:01:04;;;;;;;;;;;;;;;10.55;63.89;97793.16;4809640;29;19920;-89
2020/12/27 11:03:29;;;;;;;;;;;;;;;11.40;57.05;97801.09;4824287;29;20020;-86
2020/12/27 11:05:54;;;;;;;;;;;;;;;11.29;60.42;97769.69;4824725;29;19916;-85
2020/12/27 11:08:21;;;;;;;;;;;;;;;10.79;62.37;97803.44;4843052;29;19916;-84
2020/12/27 11:10:47;;;;;;;;;;;;;;;11.40;60.91;97776.72;4826916;29;20019;-85
2020/12/27 11:13:12;;;;;;;;;;;;;;;10.75;63.16;97799.31;4826324;29;20015;-85
2020/12/27 11:15:37;;;;;;;;;;;;;;;11.27;63.20;97788.78;4826357;29;19963;-84
2020/12/27 11:18:03;;;;;;;;;;;;;;;11.17;62.88;97783.44;4826146;29;19924;-84
2020/12/27 11:20:28;;;;;;;;;;;;;;;11.08;62.82;97787.06;4827723;29;19973;-85
2020/12/27 11:22:55;;;;;;;;;;;;;;;10.86;63.21;97799.13;4845190;29;19916;-84
2020/12/27 11:25:20;;;;;;;;;;;;;;;10.99;63.10;97818.56;4843030;29;19922;-84
2020/12/27 11:27:45;;;;;;;;;;;;;;;10.76;67.21;97792.91;4826558;29;19917;-86
2020/12/27 11:30:10;;;;;;;;;;;;;;;10.93;65.38;97802.09;4826650;29;19920;-85
2020/12/27 11:32:36;;;;;;;;;;;;;;;10.75;64.76;97838.03;4829374;29;19928;-85
2020/12/27 11:35:01;;;;;;;;;;;;;;;9.79;68.38;97821.88;4835547;29;19927;-84
2020/12/27 11:37:26;;;;;;;;;;;;;;;10.06;68.00;97815.72;4840721;29;19921;-85
2020/12/27 11:39:51;;;;;;;;;;;;;;;10.52;65.52;97802.41;4821943;29;19917;-84
2020/12/27 11:42:17;;;;;;;;;;;;;;;9.46;68.23;97801.56;4835630;29;19916;-87
2020/12/27 11:44:42;;;;;;;;;;;;;;;10.82;65.68;97789.63;4836951;29;19970;-86
2020/12/27 11:47:08;;;;;;;;;;;;;;;10.15;67.34;97784.28;4821343;29;19923;-88
2020/12/27 11:49:33;;;;;;;;;;;;;;;9.99;67.78;97776.78;4818233;29;19916;-88
2020/12/27 11:51:59;;;;;;;;;;;;;;;10.95;64.10;97800.94;4816839;29;19977;-87
2020/12/27 11:54:30;;;;;;;;;;;;;;;10.93;64.50;97756.97;4835329;29;19917;-88
2020/12/27 11:56:55;;;;;;;;;;;;;;;11.06;64.70;97744.94;4815058;29;19917;-88
2020/12/27 11:59:21;;;;;;;;;;;;;;;11.09;64.23;97741.91;4822929;29;19924;-92
2020/12/27 12:01:52;;;;;;;;;;;;;;;11.50;66.35;97726.06;4841836;29;19927;-87
2020/12/27 12:04:17;;;;;;;;;;;;;;;10.86;65.40;97731.53;4806233;29;19925;-85
2020/12/27 12:06:43;;;;;;;;;;;;;;;10.39;66.57;97696.50;4817846;29;19973;-86
2020/12/27 12:09:09;;;;;;;;;;;;;;;10.41;69.86;97703.44;4846122;29;20367;-88
2020/12/27 12:11:35;;;;;;;;;;;;;;;10.39;67.60;97710.88;4814605;29;19924;-87
2020/12/27 12:14:00;;;;;;;;;;;;;;;10.60;66.00;97709.78;4844985;29;19917;-87
2020/12/27 12:16:26;;;;;;;;;;;;;;;10.93;65.11;97685.78;4845686;29;19916;-87
2020/12/27 12:18:51;;;;;;;;;;;;;;;10.75;66.30;97685.75;4846107;29;19949;-86
2020/12/27 12:21:16;;;;;;;;;;;;;;;10.80;66.35;97683.47;4845563;29;20018;-86
2020/12/27 12:23:41;;;;;;;;;;;;;;;10.96;64.93;97691.75;4829146;29;20028;-85
2020/12/27 12:26:06;;;;;;;;;;;;;;;11.08;64.86;97673.44;4828536;29;20064;-86
2020/12/27 12:28:32;;;;;;;;;;;;;;;10.70;65.85;97659.19;4845316;29;19948;-86
2020/12/27 12:30:57;;;;;;;;;;;;;;;10.86;65.21;97671.19;4828733;29;19916;-85
2020/12/27 12:33:22;;;;;;;;;;;;;;;11.37;63.84;97647.13;4828861;29;19922;-85
2020/12/27 12:35:48;;;;;;;;;;;;;;;11.62;62.37;97650.88;4828692;29;20003;-86
2020/12/27 12:38:13;;;;;;;;;;;;;;;11.07;65.16;97657.38;4828671;29;20286;-85
2020/12/27 12:40:38;;;;;;;;;;;;;;;11.76;62.49;97636.75;4829066;29;20382;-86
2020/12/27 12:43:04;;;;;;;;;;;;;;;11.33;63.04;97625.78;4828971;29;19916;-85
2020/12/27 12:45:31;;;;;;;;;;;;;;;11.80;61.88;97626.44;4845346;29;19916;-85
2020/12/27 12:47:57;;;;;;;;;;;;;;;11.58;62.74;97639.50;4829370;29;19916;-86
2020/12/27 12:50:24;;;;;;;;;;;;;;;11.38;62.50;97611.78;4845779;29;19917;-89
2020/12/27 12:52:49;;;;;;;;;;;;;;;11.43;62.59;97622.13;4847458;29;19923;-88
2020/12/27 12:55:14;;;;;;;;;;;;;;;11.35;62.14;97629.19;4836207;29;20011;-86
2020/12/27 12:57:39;;;;;;;;;;;;;;;11.72;61.69;97635.38;4850291;29;19924;-84
2020/12/27 13:00:05;;;;;;;;;;;;;;;11.35;62.34;97629.19;4835282;29;19926;-85
2020/12/27 13:02:31;;;;;;;;;;;;;;;11.17;62.68;97631.94;4851017;29;19955;-85
2020/12/27 13:04:56;;;;;;;;;;;;;;;12.03;60.29;97621.34;4852153;29;20359;-86